EKOD/ODE METAR and TAF weather

Enter ICAO airport designator
Station Type Date Time Source
EKOD METAR 2020/11/26 15:50 UTC NOAA

EKOD 261550Z 25007KT 9999 FEW020 04/03 Q1018


Station Type Date Time Source
EKOD Decoded METAR 2020/11/26 15:50 UTC NOAA

Odense / Beldringe, Denmark (EKOD) 55-29N 010-20E 17M
Nov 26, 2020 - 10:50 AM EST / 2020.11.26 1550 UTC
Wind: from the WSW (250 degrees) at 8 MPH (7 KT):0
Visibility: greater than 7 mile(s):0
Sky conditions: mostly clear
Temperature: 39 F (4 C)
Dew Point: 37 F (3 C)
Relative Humidity: 93%
Pressure (altimeter): 30.06 in. Hg (1018 hPa)
ob: EKOD 261550Z 25007KT 9999 FEW020 04/03 Q1018
cycle: 16

Station Type Date Time Source
EKOD TAF 2015/04/20 17:00 UTC NOAA

TAF
AMD EKOD 201701Z 2017/2018 CNL

Example: see airport list